createdAt,value
2017-02-04T06:26:40.844Z,99.99
2017-02-04T06:27:22.467Z,99.99
2017-02-04T06:28:03.044Z,99.99
2017-02-04T06:28:43.688Z,99.99
2017-02-04T06:29:24.324Z,99.99
2017-02-04T06:30:04.925Z,99.99
2017-02-04T06:30:45.539Z,99.99
2017-02-04T06:31:26.174Z,99.99
2017-02-04T06:32:06.769Z,99.99
2017-02-04T06:32:48.342Z,99.99
2017-02-04T06:33:28.942Z,99.99
2017-02-04T06:34:09.625Z,99.99
2017-02-04T06:34:50.382Z,99.99
2017-02-04T06:35:31.031Z,99.99
2017-02-04T06:36:11.682Z,99.99
2017-02-04T06:36:53.361Z,99.99
2017-02-04T06:37:34.014Z,99.99
2017-02-04T06:38:14.631Z,99.99
2017-02-04T06:38:55.325Z,99.99
2017-02-04T06:39:36.092Z,99.99
2017-02-04T06:40:16.714Z,99.99
2017-02-04T06:40:57.474Z,99.99
2017-02-04T06:41:38.129Z,99.99
2017-02-04T06:42:18.791Z,99.99
2017-02-04T06:42:59.494Z,99.99
2017-02-04T06:43:40.081Z,99.99
2017-02-04T06:44:20.744Z,99.99
2017-02-04T06:45:02.418Z,99.99
2017-02-04T06:45:43.015Z,99.99
2017-02-04T06:46:23.617Z,99.99
2017-02-04T06:47:04.181Z,99.99
2017-02-04T06:47:44.832Z,99.99
2017-02-04T06:48:25.522Z,99.99
2017-02-04T06:49:06.133Z,99.99
2017-02-04T06:49:46.723Z,99.99
2017-02-04T06:50:27.364Z,99.99
2017-02-04T06:51:08.030Z,99.99
2017-02-04T06:51:48.632Z,99.99
2017-02-04T06:52:29.240Z,99.99
2017-02-04T06:53:09.887Z,99.99
2017-02-04T06:53:50.644Z,99.99
2017-02-04T06:54:31.343Z,99.99
2017-02-04T06:55:11.934Z,99.99
2017-02-04T06:55:52.664Z,99.99
2017-02-04T06:56:33.272Z,99.99
2017-02-04T06:57:13.945Z,99.99
2017-02-04T06:57:54.530Z,99.99
2017-02-04T06:58:35.186Z,99.99
2017-02-04T06:59:15.836Z,99.99
2017-02-04T06:59:56.588Z,99.99
2017-02-04T07:00:37.253Z,99.99
2017-02-04T07:01:17.928Z,99.99
2017-02-04T07:01:58.542Z,99.99
2017-02-04T07:02:40.240Z,99.99
2017-02-04T07:03:20.962Z,99.99
2017-02-04T07:04:01.752Z,99.99
2017-02-04T07:04:42.466Z,99.99
2017-02-04T07:05:23.316Z,99.99
2017-02-04T07:06:04.075Z,99.99
2017-02-04T07:06:44.834Z,99.99
2017-02-04T07:07:25.704Z,99.99
2017-02-04T07:08:06.483Z,99.99
2017-02-04T07:08:47.252Z,99.99
2017-02-04T07:09:27.969Z,99.99
2017-02-04T07:10:08.547Z,99.99
2017-02-04T07:10:49.284Z,99.99
2017-02-04T07:11:30.069Z,99.99
2017-02-04T07:12:11.460Z,99.99
2017-02-04T07:12:52.008Z,99.99
2017-02-04T07:13:32.720Z,99.99
2017-02-04T07:14:13.462Z,99.99
2017-02-04T07:14:54.262Z,99.99
2017-02-04T07:15:34.989Z,99.99
2017-02-04T07:16:15.740Z,99.99
2017-02-04T07:16:56.493Z,99.99
2017-02-04T07:17:37.262Z,99.99
2017-02-04T07:18:17.974Z,99.99
2017-02-04T07:18:58.565Z,99.99
2017-02-04T07:19:39.312Z,99.99
2017-02-04T07:20:20.037Z,99.99
2017-02-04T07:21:00.597Z,99.99
2017-02-04T07:21:41.360Z,99.99
2017-02-04T07:22:22.110Z,99.99
2017-02-04T07:23:02.679Z,99.99
2017-02-04T07:23:43.432Z,99.99
2017-02-04T07:24:24.158Z,99.99
2017-02-04T07:25:04.720Z,99.99
2017-02-04T07:25:45.475Z,99.99
2017-02-04T07:26:26.223Z,99.99
2017-02-04T07:27:06.785Z,99.99
2017-02-04T07:27:47.537Z,99.99
2017-02-04T07:28:28.286Z,99.99
2017-02-04T07:29:08.854Z,99.99
2017-02-04T07:29:49.624Z,99.99
2017-02-04T07:30:30.384Z,99.99
2017-02-04T07:31:11.103Z,99.99
2017-02-04T07:31:51.679Z,99.99
2017-02-04T07:32:32.328Z,99.99
2017-02-04T07:33:13.985Z,99.99
2017-02-04T07:33:54.579Z,99.99
2017-02-04T07:34:35.216Z,99.99
2017-02-04T07:35:15.835Z,99.99
2017-02-04T07:35:56.404Z,99.99
2017-02-04T07:36:37.051Z,99.99
2017-02-04T07:37:17.692Z,99.99
2017-02-04T07:37:58.256Z,99.99
2017-02-04T07:38:38.932Z,99.99
2017-02-04T07:39:19.566Z,99.99
2017-02-04T07:40:00.221Z,99.99
2017-02-04T07:40:40.896Z,99.99
2017-02-04T07:41:21.527Z,99.99
2017-02-04T07:42:02.179Z,99.99
2017-02-04T07:42:42.815Z,99.99
2017-02-04T07:43:23.418Z,99.99
2017-02-04T07:44:04.279Z,99.99
2017-02-04T07:44:44.841Z,99.99
2017-02-04T07:45:25.463Z,99.99
2017-02-04T07:46:06.143Z,99.99
2017-02-04T07:46:46.734Z,99.99
2017-02-04T07:47:27.298Z,99.99
2017-02-04T07:48:07.947Z,99.99
2017-02-04T07:48:48.531Z,99.99
2017-02-04T07:49:29.140Z,99.99
2017-02-04T07:50:09.704Z,99.99
2017-02-04T07:50:50.464Z,99.99
2017-02-04T07:51:31.053Z,99.99
2017-02-04T07:52:11.611Z,99.99
2017-02-04T07:52:52.221Z,99.99
2017-02-04T07:53:32.771Z,99.99
2017-02-04T07:54:14.445Z,99.99
2017-02-04T07:54:55.089Z,99.99
2017-02-04T07:55:35.658Z,99.99
2017-02-04T07:56:16.302Z,99.99
2017-02-04T07:56:56.939Z,99.99
2017-02-04T07:57:37.609Z,99.99
2017-02-04T07:58:18.308Z,99.99
2017-02-04T07:58:58.857Z,99.99
2017-02-04T07:59:39.438Z,99.99
2017-02-04T08:00:20.008Z,99.99
2017-02-04T08:01:00.579Z,99.99
2017-02-04T08:01:41.139Z,99.99
2017-02-04T08:02:21.699Z,99.99
2017-02-04T08:03:02.266Z,99.99
2017-02-04T08:03:42.822Z,99.99
2017-02-04T08:04:23.394Z,99.99
2017-02-04T08:05:03.974Z,99.99
2017-02-04T08:05:44.534Z,99.99
2017-02-04T08:06:25.095Z,99.99
2017-02-04T08:07:05.656Z,99.99
2017-02-04T08:07:46.217Z,99.99
2017-02-04T08:08:26.772Z,99.99
2017-02-04T08:09:07.339Z,99.99
2017-02-04T08:09:47.918Z,99.99
2017-02-04T08:10:28.487Z,99.99
2017-02-04T08:11:09.036Z,99.99
2017-02-04T08:11:49.608Z,99.99
2017-02-04T08:12:30.170Z,99.99
2017-02-04T08:13:10.726Z,99.99
2017-02-04T08:13:52.293Z,99.99
2017-02-04T08:14:32.846Z,99.99
2017-02-04T08:15:13.415Z,99.99
2017-02-04T08:15:54.008Z,99.99
2017-02-04T08:16:34.579Z,99.99
2017-02-04T08:17:15.144Z,99.99
2017-02-04T08:17:55.723Z,99.99
2017-02-04T08:18:36.294Z,99.99
2017-02-04T08:19:16.872Z,99.99
2017-02-04T08:19:57.434Z,99.99
2017-02-04T08:20:38.033Z,99.99
2017-02-04T08:21:18.595Z,99.99
2017-02-04T08:21:59.175Z,99.99
2017-02-04T08:22:39.728Z,99.99
2017-02-04T08:23:20.300Z,99.99
2017-02-04T08:24:00.871Z,99.99
2017-02-04T08:24:41.428Z,99.99
2017-02-04T08:25:22.012Z,99.99
2017-02-04T08:26:02.593Z,99.99
2017-02-04T08:26:43.167Z,99.99
2017-02-04T08:27:23.735Z,99.99
2017-02-04T08:28:04.323Z,99.99
2017-02-04T08:28:44.908Z,99.99
2017-02-04T08:29:25.483Z,99.99
2017-02-04T08:30:06.036Z,99.99
2017-02-04T08:30:46.618Z,99.99
2017-02-04T08:31:27.234Z,99.99
2017-02-04T08:32:07.807Z,99.99
2017-02-04T08:32:48.383Z,99.99
2017-02-04T08:33:28.955Z,99.99
2017-02-04T08:34:09.510Z,99.99
2017-02-04T08:34:50.094Z,99.99
2017-02-04T08:35:30.679Z,99.99
2017-02-04T08:36:11.246Z,99.99
2017-02-04T08:36:51.809Z,99.99
2017-02-04T08:37:32.386Z,99.99
2017-02-04T08:38:12.927Z,99.99
2017-02-04T08:38:53.499Z,99.99
2017-02-04T08:39:34.065Z,99.99
2017-02-04T08:40:14.632Z,99.99
2017-02-04T08:40:55.205Z,99.99
2017-02-04T08:41:35.778Z,99.99
2017-02-04T08:42:16.330Z,99.99
2017-02-04T08:42:56.889Z,99.99
2017-02-04T08:43:37.459Z,99.99
2017-02-04T08:44:18.033Z,99.99
2017-02-04T08:44:58.605Z,99.99
2017-02-04T08:45:39.180Z,99.99
2017-02-04T08:46:19.749Z,99.99
2017-02-04T08:47:00.310Z,99.99
2017-02-04T08:47:40.888Z,99.99
2017-02-04T08:48:21.465Z,99.99
2017-02-04T08:49:02.022Z,99.99
2017-02-04T08:49:42.589Z,99.99
2017-02-04T08:50:23.157Z,99.99
2017-02-04T08:51:03.777Z,99.99
2017-02-04T08:51:44.307Z,99.99
2017-02-04T08:52:24.879Z,99.99
2017-02-04T08:53:05.460Z,99.99
2017-02-04T08:53:45.998Z,99.99
2017-02-04T08:54:26.566Z,99.99
2017-02-04T08:55:07.115Z,99.99
2017-02-04T08:55:47.687Z,99.99
2017-02-04T08:56:28.260Z,99.99
2017-02-04T08:57:08.833Z,99.99
2017-02-04T08:57:49.387Z,99.99
2017-02-04T08:58:29.964Z,99.99
2017-02-04T08:59:10.567Z,99.99
2017-02-04T08:59:51.150Z,99.99
2017-02-04T09:00:31.700Z,99.99
2017-02-04T09:01:12.256Z,99.99
2017-02-04T09:01:52.842Z,99.99
2017-02-04T09:02:33.474Z,99.99
2017-02-04T09:03:14.067Z,99.99
2017-02-04T09:03:54.646Z,99.99
2017-02-04T09:04:35.279Z,99.99
2017-02-04T09:05:15.847Z,99.99
2017-02-04T09:05:56.412Z,99.99
2017-02-04T09:06:37.975Z,99.99
2017-02-04T09:07:19.558Z,99.99
2017-02-04T09:08:00.111Z,99.99
2017-02-04T09:08:40.690Z,99.99
2017-02-04T09:09:21.254Z,99.99
2017-02-04T09:10:01.828Z,99.99
2017-02-04T09:10:42.416Z,99.99
2017-02-04T09:11:22.973Z,99.99
2017-02-04T09:12:04.539Z,99.99
2017-02-04T09:12:45.113Z,99.99
2017-02-04T09:13:25.655Z,99.99
2017-02-04T09:14:06.251Z,99.99
2017-02-04T09:14:46.831Z,99.99
2017-02-04T09:15:27.409Z,99.99
2017-02-04T09:16:07.959Z,99.99
2017-02-04T09:16:48.517Z,99.99
2017-02-04T09:17:29.112Z,99.99
2017-02-04T09:18:09.713Z,99.99
2017-02-04T09:18:50.277Z,99.99
2017-02-04T09:19:30.842Z,99.99
2017-02-04T09:20:11.412Z,99.99
2017-02-04T09:20:51.968Z,99.99
2017-02-04T09:21:32.542Z,99.99
2017-02-04T09:22:13.132Z,99.99
2017-02-04T09:22:53.704Z,99.99
2017-02-04T09:23:34.292Z,99.99
2017-02-04T09:24:14.844Z,99.99
2017-02-04T09:24:55.424Z,99.99
2017-02-04T09:25:35.975Z,99.99
2017-02-04T09:26:16.547Z,99.99
2017-02-04T09:26:57.139Z,99.99
2017-02-04T09:27:37.698Z,99.99
2017-02-04T09:28:18.292Z,99.99
2017-02-04T09:28:58.845Z,99.99
2017-02-04T09:29:39.386Z,99.99
2017-02-04T09:30:19.936Z,99.99
2017-02-04T09:31:00.501Z,99.99
2017-02-04T09:31:41.078Z,99.99
2017-02-04T09:32:21.651Z,99.99
2017-02-04T09:33:02.221Z,99.99
2017-02-04T09:33:42.808Z,99.99
2017-02-04T09:34:23.379Z,99.99
2017-02-04T09:35:03.958Z,99.99
2017-02-04T09:35:44.559Z,99.99
2017-02-04T09:36:25.136Z,99.99
2017-02-04T09:37:05.712Z,99.99
2017-02-04T09:37:46.276Z,99.99
2017-02-04T09:38:26.839Z,99.99
2017-02-04T09:39:07.414Z,99.99
2017-02-04T09:39:47.979Z,99.99
2017-02-04T09:40:28.553Z,99.99
2017-02-04T09:41:09.141Z,99.99
2017-02-04T09:41:50.693Z,99.99
2017-02-04T09:42:31.367Z,99.99
2017-02-04T09:43:11.897Z,99.99
2017-02-04T09:43:52.483Z,99.99
2017-02-04T09:44:33.028Z,99.99
2017-02-04T09:45:13.602Z,99.99
2017-02-04T09:45:54.174Z,99.99
2017-02-04T09:46:34.739Z,99.99
2017-02-04T09:47:16.322Z,99.99
2017-02-04T09:47:56.907Z,99.99
2017-02-04T09:48:37.471Z,99.99
2017-02-04T09:49:18.081Z,99.99
2017-02-04T09:49:58.660Z,99.99
2017-02-04T09:50:39.211Z,99.99
2017-02-04T09:51:20.785Z,99.99
2017-02-04T09:52:01.349Z,99.99
2017-02-04T09:52:41.933Z,99.99
2017-02-04T09:53:22.509Z,99.99
2017-02-04T09:54:03.067Z,99.99
2017-02-04T09:54:43.624Z,99.99
2017-02-04T09:55:24.198Z,99.99
2017-02-04T09:56:04.760Z,99.99
2017-02-04T09:56:45.320Z,99.99
2017-02-04T09:57:25.907Z,99.99
2017-02-04T09:58:06.477Z,99.99
2017-02-04T09:58:47.055Z,99.99
2017-02-04T09:59:27.620Z,99.99
2017-02-04T10:00:08.194Z,99.99
2017-02-04T10:00:48.765Z,99.99
2017-02-04T10:01:29.353Z,99.99
2017-02-04T10:02:09.949Z,99.99
2017-02-04T10:02:50.535Z,99.99
2017-02-04T10:03:31.127Z,99.99
2017-02-04T10:04:12.699Z,99.99
2017-02-04T10:04:53.256Z,99.99
2017-02-04T10:05:33.826Z,99.99
2017-02-04T10:06:14.396Z,99.99
2017-02-04T10:06:54.951Z,99.99
2017-02-04T10:07:35.498Z,99.99
2017-02-04T10:08:16.086Z,99.99
2017-02-04T10:08:56.643Z,99.99
2017-02-04T10:09:37.217Z,99.99
2017-02-04T10:10:17.783Z,99.99
2017-02-04T10:10:58.354Z,99.99
2017-02-04T10:11:38.927Z,99.99
2017-02-04T10:12:19.502Z,99.99
2017-02-04T10:13:00.073Z,99.99
2017-02-04T10:13:40.642Z,99.99
2017-02-04T10:14:21.223Z,99.99
2017-02-04T10:15:01.774Z,99.99
2017-02-04T10:15:42.330Z,99.99
2017-02-04T10:16:22.889Z,99.99
2017-02-04T10:17:03.473Z,99.99
2017-02-04T10:17:44.044Z,99.99
2017-02-04T10:18:24.619Z,99.99
2017-02-04T10:19:05.198Z,99.99
2017-02-04T10:19:45.771Z,99.99
2017-02-04T10:20:26.337Z,99.99
2017-02-04T10:21:06.896Z,99.99
2017-02-04T10:21:47.446Z,99.99
2017-02-04T10:22:28.042Z,99.99
2017-02-04T10:23:08.624Z,99.99
2017-02-04T10:23:49.236Z,99.99
2017-02-04T10:24:29.798Z,99.99
2017-02-04T10:25:11.368Z,99.99
2017-02-04T10:25:51.955Z,99.99
2017-02-04T10:26:32.499Z,99.99
2017-02-04T10:27:13.062Z,99.99
2017-02-04T10:27:53.642Z,99.99
2017-02-04T10:28:34.198Z,99.99
2017-02-04T10:29:14.800Z,99.99
2017-02-04T10:29:55.372Z,99.99
2017-02-04T10:30:35.936Z,99.99
2017-02-04T10:31:16.505Z,99.99
2017-02-04T10:31:57.077Z,99.99
2017-02-04T10:32:37.610Z,99.99
2017-02-04T10:33:18.187Z,99.99
2017-02-04T10:33:58.753Z,99.97
2017-02-04T10:34:39.320Z,99.87
2017-02-04T10:35:19.905Z,99.99
2017-02-04T10:36:00.466Z,99.99
2017-02-04T10:36:41.058Z,99.99
2017-02-04T10:37:21.624Z,99.97
2017-02-04T10:38:02.786Z,99.87
2017-02-04T10:38:43.354Z,99.99
2017-02-04T10:39:23.907Z,99.3
2017-02-04T10:40:04.491Z,99.3
2017-02-04T10:40:45.052Z,99.4
2017-02-04T10:41:25.601Z,99.21
2017-02-04T10:42:06.159Z,98.97
2017-02-04T10:42:46.686Z,99.02
2017-02-04T10:43:27.234Z,99.07
2017-02-04T10:44:07.809Z,99.3
2017-02-04T10:44:48.377Z,98.83
2017-02-04T10:45:28.933Z,98.35
2017-02-04T10:46:10.481Z,98.64
2017-02-04T10:46:51.055Z,98.88
2017-02-04T10:47:32.627Z,98.83
2017-02-04T10:48:13.182Z,98.35
2017-02-04T10:48:53.770Z,98.69
2017-02-04T10:49:34.341Z,98.4
2017-02-04T10:50:14.948Z,98.35
2017-02-04T10:50:55.528Z,98.4
2017-02-04T10:51:36.093Z,98.07
2017-02-04T10:52:16.660Z,98.31
2017-02-04T10:52:57.214Z,97.55
2017-02-04T10:53:37.806Z,97.74
2017-02-04T10:54:18.367Z,98.02
2017-02-04T10:54:58.919Z,97.55
2017-02-04T10:55:39.498Z,97.36
2017-02-04T10:56:20.104Z,97.64
2017-02-04T10:57:00.662Z,97.83
2017-02-04T10:57:41.220Z,97.45
2017-02-04T10:58:21.797Z,97.17
2017-02-04T10:59:02.384Z,97.36
2017-02-04T10:59:42.937Z,97.17
2017-02-04T11:00:23.496Z,97.55
2017-02-04T11:01:04.054Z,96.98
2017-02-04T11:01:44.630Z,97.17
2017-02-04T11:02:25.183Z,97.27
2017-02-04T11:03:05.728Z,96.5
2017-02-04T11:03:46.278Z,96.69
2017-02-04T11:04:26.855Z,96.12
2017-02-04T11:05:08.419Z,96.69
2017-02-04T11:05:48.984Z,96.03
2017-02-04T11:06:29.555Z,96.31
2017-02-04T11:07:10.125Z,96.22
2017-02-04T11:07:50.689Z,96.5
2017-02-04T11:08:31.286Z,95.7
2017-02-04T11:09:11.858Z,95.7
2017-02-04T11:09:52.406Z,95.79
2017-02-04T11:10:33.003Z,96.17
2017-02-04T11:11:13.542Z,95.79
2017-02-04T11:11:54.115Z,95.41
2017-02-04T11:12:34.709Z,95.7
2017-02-04T11:13:15.261Z,95.79
2017-02-04T11:13:55.816Z,95.79
2017-02-04T11:14:36.395Z,95.41
2017-02-04T11:15:16.949Z,95.22
2017-02-04T11:15:57.519Z,95.12
2017-02-04T11:16:38.094Z,94.46
2017-02-04T11:17:18.666Z,95.22
2017-02-04T11:17:59.235Z,94.84
2017-02-04T11:18:39.803Z,94.93
2017-02-04T11:19:20.353Z,94.93
2017-02-04T11:20:00.931Z,95.03
2017-02-04T11:20:41.519Z,94.65
2017-02-04T11:21:22.120Z,94.27
2017-02-04T11:22:02.684Z,94.65
2017-02-04T11:22:44.851Z,94.65
2017-02-04T11:23:25.397Z,94.46
2017-02-04T11:24:05.993Z,93.89
2017-02-04T11:24:46.568Z,94.27
2017-02-04T11:25:27.149Z,94.27
2017-02-04T11:26:07.697Z,94.37
2017-02-04T11:26:48.263Z,94.08
2017-02-04T11:27:28.823Z,93.99
2017-02-04T11:28:09.374Z,93.89
2017-02-04T11:28:49.947Z,93.79
2017-02-04T11:29:30.521Z,93.99
2017-02-04T11:30:11.074Z,94.18
2017-02-04T11:30:51.633Z,94.08
2017-02-04T11:31:32.188Z,93.7
2017-02-04T11:32:12.761Z,93.6
2017-02-04T11:32:53.349Z,92.75
2017-02-04T11:33:33.948Z,93.32
2017-02-04T11:34:14.508Z,93.41
2017-02-04T11:34:55.074Z,93.04
2017-02-04T11:35:35.693Z,93.04
2017-02-04T11:36:16.268Z,93.41
2017-02-04T11:36:56.843Z,93.13
2017-02-04T11:37:37.439Z,92.75
2017-02-04T11:38:18.029Z,92.75
2017-02-04T11:38:58.581Z,92.56
2017-02-04T11:39:39.166Z,92.66
2017-02-04T11:40:19.761Z,92.37
2017-02-04T11:41:00.324Z,92.27
2017-02-04T11:41:40.915Z,92.56
2017-02-04T11:42:21.472Z,92.37
2017-02-04T11:43:02.117Z,92.51
2017-02-04T11:43:42.695Z,92.7
2017-02-04T11:44:23.243Z,92.13
2017-02-04T11:45:04.810Z,92.13
2017-02-04T11:45:45.392Z,92.22
2017-02-04T11:46:25.956Z,92.22
2017-02-04T11:47:06.589Z,91.56
2017-02-04T11:47:47.161Z,91.56
2017-02-04T11:48:27.732Z,91.56
2017-02-04T11:49:08.313Z,91.66
2017-02-04T11:49:48.901Z,91.75
2017-02-04T11:50:29.467Z,91.85
2017-02-04T11:51:10.041Z,91.47
2017-02-04T11:51:50.621Z,91.28
2017-02-04T11:52:31.187Z,91.18
2017-02-04T11:53:11.739Z,91.08
2017-02-04T11:53:52.390Z,91.08
2017-02-04T11:54:32.972Z,90.8
2017-02-04T11:55:13.526Z,90.99
2017-02-04T11:55:54.117Z,91.08
2017-02-04T11:56:34.689Z,90.52
2017-02-04T11:57:15.262Z,90.52
2017-02-04T11:57:55.842Z,91.08
2017-02-04T11:58:36.402Z,91.08
2017-02-04T11:59:16.972Z,91.37
2017-02-04T11:59:57.543Z,90.89
2017-02-04T12:00:38.094Z,90.7
2017-02-04T12:01:18.673Z,90.42
2017-02-04T12:01:59.232Z,90.89
2017-02-04T12:02:39.785Z,90.89
2017-02-04T12:03:20.336Z,90.52
2017-02-04T12:04:00.898Z,90.7
2017-02-04T12:04:41.453Z,89.94
2017-02-04T12:05:22.033Z,89.85
2017-02-04T12:06:02.619Z,89.99
2017-02-04T12:06:43.193Z,90.04
2017-02-04T12:07:23.760Z,90.08
2017-02-04T12:08:04.331Z,89.89
2017-02-04T12:08:44.925Z,90.08
2017-02-04T12:09:25.495Z,89.89
2017-02-04T12:10:06.063Z,89.61
2017-02-04T12:10:46.636Z,89.61
2017-02-04T12:11:27.207Z,89.32
2017-02-04T12:12:07.806Z,89.51
2017-02-04T12:12:48.341Z,89.14
2017-02-04T12:13:28.914Z,89.32
2017-02-04T12:14:09.473Z,89.14
2017-02-04T12:14:50.037Z,89.14
2017-02-04T12:15:30.592Z,88.94
2017-02-04T12:16:11.181Z,88.46
2017-02-04T12:16:51.748Z,88.37
2017-02-04T12:17:32.318Z,88.28
2017-02-04T12:18:12.893Z,88.37
2017-02-04T12:18:53.444Z,88.37
2017-02-04T12:19:34.014Z,88.56
2017-02-04T12:20:14.572Z,88.18
2017-02-04T12:20:55.148Z,88.09
2017-02-04T12:21:35.712Z,88.13
2017-02-04T12:22:17.287Z,87.71
2017-02-04T12:22:57.855Z,87.94
2017-02-04T12:23:38.425Z,87.75
2017-02-04T12:24:18.995Z,87.75
2017-02-04T12:25:00.575Z,87.8
2017-02-04T12:25:41.153Z,87.56
2017-02-04T12:26:21.734Z,87.18
2017-02-04T12:27:02.309Z,87.42
2017-02-04T12:27:42.877Z,87.37
2017-02-04T12:28:23.490Z,87.27
2017-02-04T12:29:04.079Z,87.46
2017-02-04T12:29:44.659Z,86.9
2017-02-04T12:30:25.225Z,86.85
2017-02-04T12:31:05.794Z,86.76
2017-02-04T12:31:46.359Z,86.85
2017-02-04T12:32:26.964Z,86.66
2017-02-04T12:33:07.534Z,86.42
2017-02-04T12:33:48.099Z,86.38
2017-02-04T12:34:28.675Z,86.28
2017-02-04T12:35:09.234Z,86.38
2017-02-04T12:35:49.793Z,86.38
2017-02-04T12:36:30.400Z,86.66
2017-02-04T12:37:10.982Z,86.66
2017-02-04T12:37:51.561Z,85.99
2017-02-04T12:38:32.128Z,85.99
2017-02-04T12:39:12.693Z,86.09
2017-02-04T12:39:54.262Z,85.61
2017-02-04T12:40:34.843Z,85.61
2017-02-04T12:41:15.398Z,85.61
2017-02-04T12:41:55.957Z,85.71
2017-02-04T12:42:36.535Z,85.8
2017-02-04T12:43:17.109Z,85.61
2017-02-04T12:43:57.787Z,85.61
2017-02-04T12:44:38.351Z,85.8
2017-02-04T12:45:18.939Z,85.61
2017-02-04T12:46:01.387Z,86.18
2017-02-04T12:46:41.939Z,85.99
2017-02-04T12:47:22.525Z,85.42
2017-02-04T12:48:03.090Z,85.61
2017-02-04T12:48:43.661Z,85.42
2017-02-04T12:49:24.242Z,85.42
2017-02-04T12:50:04.814Z,85.42
2017-02-04T12:50:45.372Z,85.33
2017-02-04T12:51:25.906Z,85.42
2017-02-04T12:52:06.491Z,85.52
2017-02-04T12:52:47.065Z,85.61
2017-02-04T12:53:27.633Z,85.04
2017-02-04T12:54:08.216Z,84.85
2017-02-04T12:54:48.768Z,85.24
2017-02-04T12:55:29.343Z,85.14
2017-02-04T12:56:09.907Z,85.24
2017-02-04T12:56:50.486Z,85.33
2017-02-04T12:57:31.037Z,84.85
2017-02-04T12:58:11.606Z,84.66
2017-02-04T12:58:52.165Z,84.76
2017-02-04T12:59:32.736Z,84.47
2017-02-04T13:00:13.323Z,84.66
2017-02-04T13:00:53.872Z,84.47
2017-02-04T13:01:34.428Z,84.66
2017-02-04T13:02:15.012Z,84.95
2017-02-04T13:02:55.568Z,84.66
2017-02-04T13:03:36.129Z,84.56
2017-02-04T13:04:16.692Z,84.38
2017-02-04T13:04:57.268Z,84.47
2017-02-04T13:05:38.855Z,84.66
2017-02-04T13:06:19.426Z,84.09
2017-02-04T13:06:59.979Z,83.9
2017-02-04T13:07:40.548Z,84.09
2017-02-04T13:08:21.100Z,84.09
2017-02-04T13:09:01.671Z,83.81
2017-02-04T13:09:42.241Z,83.62
2017-02-04T13:10:22.811Z,83.81
2017-02-04T13:11:03.415Z,83.9
2017-02-04T13:11:43.994Z,83.9
2017-02-04T13:12:24.583Z,83.81
2017-02-04T13:13:05.160Z,83.9
2017-02-04T13:13:45.757Z,83.81
2017-02-04T13:14:26.337Z,84.09
2017-02-04T13:15:06.928Z,83.9
2017-02-04T13:15:47.479Z,83.9
2017-02-04T13:16:28.073Z,84.19
2017-02-04T13:17:08.629Z,83.42
2017-02-04T13:17:49.178Z,83.62
2017-02-04T13:18:29.768Z,83.52
2017-02-04T13:19:10.351Z,83.52
2017-02-04T13:19:50.925Z,83.52
2017-02-04T13:20:31.497Z,83.52
2017-02-04T13:21:12.088Z,83.52
2017-02-04T13:21:52.675Z,83.52
2017-02-04T13:22:33.249Z,83.62
2017-02-04T13:23:13.824Z,83.52
2017-02-04T13:23:54.382Z,83.42
2017-02-04T13:24:34.960Z,83.52
2017-02-04T13:25:15.542Z,83.33
2017-02-04T13:25:56.103Z,83.52
2017-02-04T13:26:36.678Z,83.52
2017-02-04T13:27:17.250Z,83.52
2017-02-04T13:27:57.821Z,83.33
2017-02-04T13:28:38.392Z,83.23
2017-02-04T13:29:18.990Z,83.52
2017-02-04T13:29:59.544Z,83.29
2017-02-04T13:30:40.118Z,83.39
2017-02-04T13:31:20.668Z,83.58
2017-02-04T13:32:01.234Z,83.42
2017-02-04T13:32:41.793Z,83.48
2017-02-04T13:33:22.365Z,83.33
2017-02-04T13:34:02.963Z,83
2017-02-04T13:34:43.548Z,83.1
2017-02-04T13:35:24.118Z,83.1
2017-02-04T13:36:04.673Z,83.29
2017-02-04T13:36:45.242Z,82.91
2017-02-04T13:37:25.815Z,82.81
2017-02-04T13:38:06.390Z,82.71
2017-02-04T13:38:46.970Z,82.91
2017-02-04T13:39:27.559Z,82.81
2017-02-04T13:40:08.135Z,82.91
2017-02-04T13:40:49.715Z,82.81
2017-02-04T13:41:30.277Z,82.71
2017-02-04T13:42:10.906Z,82.81
2017-02-04T13:42:51.559Z,82.91
2017-02-04T13:43:32.210Z,82.91
2017-02-04T13:44:12.810Z,82.91
2017-02-04T13:44:53.394Z,82.91
2017-02-04T13:45:33.974Z,82.71
2017-02-04T13:46:15.648Z,83.19
2017-02-04T13:46:56.241Z,83.19
2017-02-04T13:47:36.832Z,83.1
2017-02-04T13:48:17.387Z,83.1
2017-02-04T13:48:58.051Z,83.39
2017-02-04T13:49:38.679Z,83.39
2017-02-04T13:50:19.252Z,83.39
2017-02-04T13:50:59.834Z,83.58
2017-02-04T13:51:40.454Z,83.39
2017-02-04T13:52:21.086Z,83.39
2017-02-04T13:53:01.665Z,83.29
2017-02-04T13:53:42.309Z,83.29
2017-02-04T13:54:22.948Z,83.29
2017-02-04T13:55:04.524Z,83.29
2017-02-04T13:55:45.177Z,83.48
2017-02-04T13:56:26.744Z,83.58
2017-02-04T13:57:07.395Z,83.48
2017-02-04T13:57:48.071Z,83.48
2017-02-04T13:58:28.710Z,83.48
2017-02-04T13:59:09.264Z,84.14
2017-02-04T13:59:49.933Z,83.95
2017-02-04T14:00:30.621Z,83.76
2017-02-04T14:01:11.209Z,83.86
2017-02-04T14:01:51.771Z,83.86
2017-02-04T14:02:32.436Z,83.67
2017-02-04T14:03:13.057Z,84.24
2017-02-04T14:03:53.731Z,84.52
2017-02-04T14:04:34.298Z,84.43
2017-02-04T14:05:14.946Z,84.33
2017-02-04T14:05:55.603Z,84.24
2017-02-04T14:06:36.254Z,84.77
2017-02-04T14:07:16.957Z,84.72
2017-02-04T14:07:57.555Z,84.58
2017-02-04T14:08:38.227Z,84.58
2017-02-04T14:09:19.889Z,84.48
2017-02-04T14:10:00.570Z,84.48
2017-02-04T14:10:41.207Z,84.58
2017-02-04T14:11:21.852Z,84.48
2017-02-04T14:12:02.501Z,84.39
2017-02-04T14:12:43.162Z,84.52
2017-02-04T14:13:23.821Z,84.58
2017-02-04T14:14:04.472Z,84.29
2017-02-04T14:14:45.059Z,84.48
2017-02-04T14:15:25.650Z,84.58
2017-02-04T14:16:06.223Z,84.48
2017-02-04T14:16:46.891Z,84.48
2017-02-04T14:17:27.468Z,84.48
2017-02-04T14:18:08.064Z,84.58
2017-02-04T14:18:48.652Z,84.67
2017-02-04T14:19:29.314Z,84.58
2017-02-04T14:20:09.933Z,84.67
2017-02-04T14:20:50.586Z,84.2
2017-02-04T14:21:31.242Z,84.29
2017-02-04T14:22:11.896Z,84.29
2017-02-04T14:22:52.545Z,84.48
2017-02-04T14:23:33.209Z,84.58
2017-02-04T14:24:13.863Z,84.48
2017-02-04T14:24:54.448Z,84.58
2017-02-04T14:25:35.045Z,84.39
2017-02-04T14:26:15.607Z,83.82
2017-02-04T14:26:56.262Z,83.82
2017-02-04T14:27:36.854Z,83.82
2017-02-04T14:28:17.465Z,84.01
2017-02-04T14:28:58.036Z,83.53
2017-02-04T14:29:38.678Z,83.53
2017-02-04T14:30:19.311Z,83.44
2017-02-04T14:31:00.033Z,83.72
2017-02-04T14:31:40.636Z,83.44
2017-02-04T14:32:21.290Z,83.15
2017-02-04T14:33:01.931Z,83.44
2017-02-04T14:33:42.584Z,83.62
2017-02-04T14:34:23.264Z,83.62
2017-02-04T14:35:03.898Z,83.72
2017-02-04T14:35:44.556Z,83.44
2017-02-04T14:36:25.245Z,83.25
2017-02-04T14:37:05.858Z,83.53
2017-02-04T14:37:46.512Z,83.34
2017-02-04T14:38:27.138Z,83.15
2017-02-04T14:39:07.802Z,83.44
2017-02-04T14:39:48.462Z,83.15
2017-02-04T14:40:29.132Z,82.87
2017-02-04T14:41:09.829Z,82.77
2017-02-04T14:41:51.465Z,82.68
2017-02-04T14:42:32.109Z,82.77
2017-02-04T14:43:12.778Z,82.96
2017-02-04T14:43:53.429Z,82.96
2017-02-04T14:44:34.117Z,82.77
2017-02-04T14:45:14.756Z,82.96
2017-02-04T14:45:55.308Z,82.96
2017-02-04T14:46:35.937Z,82.87
2017-02-04T14:47:16.562Z,82.49
2017-02-04T14:47:57.122Z,82.87
2017-02-04T14:48:37.695Z,82.96
2017-02-04T14:49:18.344Z,82.77
2017-02-04T14:49:58.920Z,82.77
2017-02-04T14:50:39.531Z,82.96
2017-02-04T14:51:20.080Z,82.87
2017-02-04T14:52:00.754Z,82.87
2017-02-04T14:52:41.340Z,82.87
2017-02-04T14:53:21.927Z,82.77
2017-02-04T14:54:02.489Z,83.25
2017-02-04T14:54:43.160Z,82.68
2017-02-04T14:55:23.847Z,83.15
2017-02-04T14:56:04.454Z,82.96
2017-02-04T14:56:45.108Z,83.44
2017-02-04T14:57:25.757Z,83.44
2017-02-04T14:58:06.423Z,83.53
2017-02-04T14:58:47.066Z,83.44
2017-02-04T14:59:27.731Z,83.53
2017-02-04T15:00:08.366Z,83.53
2017-02-04T15:00:49.026Z,83.53
2017-02-04T15:01:29.690Z,83.25
2017-02-04T15:02:10.342Z,83.25
2017-02-04T15:02:50.985Z,83.34
2017-02-04T15:03:31.635Z,83.25
2017-02-04T15:04:12.298Z,83.25
2017-02-04T15:04:52.953Z,83.34
2017-02-04T15:05:33.582Z,83.44
2017-02-04T15:06:14.239Z,83.53
2017-02-04T15:06:54.899Z,83.53
2017-02-04T15:07:35.563Z,83.44
2017-02-04T15:08:16.206Z,83.72
2017-02-04T15:08:56.879Z,83.62
2017-02-04T15:09:37.505Z,83.53
2017-02-04T15:10:18.177Z,83.44